Time;durP1;ratioP1;P1;durP2;ratioP2;P2;SDS_P1;SDS_P2;PMS_P1;PMS_P2;Temp;Humidity;BMP_temperature;BMP_pressure;BME280_temperature;BME280_humidity;BME280_pressure;Samples;Min_cycle;Max_cycle;Signal;HPM_P1;HPM_P2
2021/12/07 00:01:43;;;;;;;0.00;0.00;;;;;;;;;;5033962;28;20208;-72
2021/12/07 00:04:11;;;;;;;0.00;0.00;;;;;;;;;;5035311;28;20249;-73
2021/12/07 00:06:40;;;;;;;0.00;0.00;;;;;;;;;;5034086;28;20258;-74
2021/12/07 00:09:09;;;;;;;0.00;0.00;;;;;;;;;;5034884;28;20211;-74
2021/12/07 00:11:39;;;;;;;0.00;0.00;;;;;;;;;;5034276;28;20214;-75
2021/12/07 00:14:12;;;;;;;0.17;0.10;;;;;;;;;;5035117;28;20207;-75
2021/12/07 00:16:41;;;;;;;0.00;0.00;;;;;;;;;;5031645;28;20229;-75
2021/12/07 00:19:10;;;;;;;0.10;0.10;;;;;;;;;;5014940;28;20227;-74
2021/12/07 00:21:38;;;;;;;0.00;0.00;;;;;;;;;;5027609;28;20211;-74
2021/12/07 00:24:07;;;;;;;0.00;0.00;;;;;;;;;;5034849;28;20270;-72
2021/12/07 00:26:38;;;;;;;0.17;0.00;;;;;;;;;;5033888;28;20312;-72
2021/12/07 00:29:08;;;;;;;0.00;0.00;;;;;;;;;;5034686;28;20663;-73
2021/12/07 00:31:40;;;;;;;0.00;0.00;;;;;;;;;;5033392;28;20269;-74
2021/12/07 00:34:15;;;;;;;0.00;0.00;;;;;;;;;;5034372;28;20656;-72
2021/12/07 00:36:46;;;;;;;0.00;0.00;;;;;;;;;;5033260;28;20223;-72
2021/12/07 00:39:16;;;;;;;0.00;0.00;;;;;;;;;;5034608;28;20212;-73
2021/12/07 00:41:44;;;;;;;0.20;0.20;;;;;;;;;;5032469;28;20204;-72
2021/12/07 00:44:15;;;;;;;0.00;0.00;;;;;;;;;;5033859;28;20198;-72
2021/12/07 00:46:44;;;;;;;0.00;0.00;;;;;;;;;;5033083;28;20235;-73
2021/12/07 00:49:12;;;;;;;0.00;0.00;;;;;;;;;;5033944;28;20211;-74
2021/12/07 00:51:41;;;;;;;0.00;0.00;;;;;;;;;;5032323;28;20208;-73
2021/12/07 00:54:10;;;;;;;0.10;0.10;;;;;;;;;;5034000;28;20201;-72
2021/12/07 00:56:38;;;;;;;0.07;0.07;;;;;;;;;;5032550;28;20711;-74
2021/12/07 00:59:07;;;;;;;0.00;0.00;;;;;;;;;;5034111;28;20651;-73
2021/12/07 01:01:38;;;;;;;0.00;0.00;;;;;;;;;;5033025;28;20206;-74
2021/12/07 01:04:07;;;;;;;0.00;0.00;;;;;;;;;;5033929;28;20203;-74
2021/12/07 01:06:46;;;;;;;0.00;0.00;;;;;;;;;;5033082;28;20235;-72
2021/12/07 01:09:22;;;;;;;0.00;0.00;;;;;;;;;;5033294;28;20589;-74
2021/12/07 01:25:44;;;;;;;0.00;0.00;;;;;;;;;;5031808;28;20241;-72
2021/12/07 01:28:22;;;;;;;0.00;0.00;;;;;;;;;;5033531;28;20695;-73
2021/12/07 01:30:55;;;;;;;0.00;0.00;;;;;;;;;;5032544;28;20290;-72
2021/12/07 01:36:36;;;;;;;0.00;0.00;;;;;;;;;;5017488;28;20266;-73
2021/12/07 01:47:38;;;;;;;0.00;0.00;;;;;;;;;;4993536;28;20227;-73
2021/12/07 01:50:32;;;;;;;0.00;0.00;;;;;;;;;;5031744;28;20215;-75
2021/12/07 02:01:14;;;;;;;0.00;0.00;;;;;;;;;;5032895;28;20598;-73
2021/12/07 02:03:43;;;;;;;0.00;0.00;;;;;;;;;;5033172;28;20287;-74
2021/12/07 02:06:14;;;;;;;0.00;0.00;;;;;;;;;;5031368;28;20227;-75
2021/12/07 02:08:42;;;;;;;0.00;0.00;;;;;;;;;;5032244;28;20201;-74
2021/12/07 02:11:10;;;;;;;0.00;0.00;;;;;;;;;;5030714;28;20220;-74
2021/12/07 02:16:29;;;;;;;0.00;0.00;;;;;;;;;;5032550;28;20222;-73
2021/12/07 02:18:57;;;;;;;0.00;0.00;;;;;;;;;;5031855;28;20209;-75
2021/12/07 02:21:28;;;;;;;0.00;0.00;;;;;;;;;;5032951;28;20622;-74
2021/12/07 02:23:56;;;;;;;0.00;0.00;;;;;;;;;;5031579;28;20215;-73
2021/12/07 02:26:25;;;;;;;0.00;0.00;;;;;;;;;;5032312;28;20220;-75
2021/12/07 02:28:53;;;;;;;0.00;0.00;;;;;;;;;;5031948;28;20569;-75
2021/12/07 02:31:22;;;;;;;0.00;0.00;;;;;;;;;;5031235;28;20259;-76
2021/12/07 02:33:51;;;;;;;0.00;0.00;;;;;;;;;;5032293;28;20304;-76
2021/12/07 02:36:20;;;;;;;0.00;0.00;;;;;;;;;;5032392;28;20207;-75
2021/12/07 02:38:49;;;;;;;0.00;0.00;;;;;;;;;;5032256;28;20212;-76
2021/12/07 02:41:18;;;;;;;0.00;0.00;;;;;;;;;;5036981;28;20211;-76
2021/12/07 02:43:46;;;;;;;0.00;0.00;;;;;;;;;;5040816;28;20212;-77
2021/12/07 02:46:15;;;;;;;0.00;0.00;;;;;;;;;;5043722;28;20247;-79
2021/12/07 02:48:44;;;;;;;0.00;0.00;;;;;;;;;;5042989;28;20216;-80
2021/12/07 02:51:13;;;;;;;0.00;0.00;;;;;;;;;;5045277;28;20545;-77
2021/12/07 02:53:41;;;;;;;0.00;0.00;;;;;;;;;;5045657;28;20694;-79
2021/12/07 02:56:12;;;;;;;0.00;0.00;;;;;;;;;;5046358;28;20208;-77
2021/12/07 02:58:42;;;;;;;0.00;0.00;;;;;;;;;;5044918;28;20203;-77
2021/12/07 03:01:15;;;;;;;14.53;11.53;;;;;;;;;;5038296;28;20224;-77
2021/12/07 03:03:55;;;;;;;13.77;11.53;;;;;;;;;;5027921;28;20232;-77
2021/12/07 03:06:31;;;;;;;14.93;11.87;;;;;;;;;;5029716;28;20224;-77
2021/12/07 03:25:59;;;;;;;14.33;11.40;;;;;;;;;;5046318;28;20215;-76
2021/12/07 03:28:29;;;;;;;13.47;10.67;;;;;;;;;;5046012;28;20203;-78
2021/12/07 03:30:57;;;;;;;17.77;13.63;;;;;;;;;;5044147;28;20208;-77
2021/12/07 03:33:26;;;;;;;18.07;12.53;;;;;;;;;;5044037;28;20204;-77
2021/12/07 03:35:54;;;;;;;16.93;12.73;;;;;;;;;;5043182;28;20200;-77
2021/12/07 03:38:23;;;;;;;19.80;13.60;;;;;;;;;;5043961;28;20230;-76
2021/12/07 03:40:51;;;;;;;18.37;13.57;;;;;;;;;;5044712;28;20204;-76
2021/12/07 03:43:20;;;;;;;16.83;12.77;;;;;;;;;;5044865;28;20303;-77
2021/12/07 03:45:50;;;;;;;16.03;13.13;;;;;;;;;;5043632;28;20627;-76
2021/12/07 03:48:18;;;;;;;17.17;13.40;;;;;;;;;;5043713;28;20223;-77
2021/12/07 03:50:47;;;;;;;18.13;13.93;;;;;;;;;;5040254;28;20227;-77
2021/12/07 03:53:15;;;;;;;17.23;13.97;;;;;;;;;;5041246;28;20205;-76
2021/12/07 03:55:44;;;;;;;20.23;13.67;;;;;;;;;;5037992;28;20199;-77
2021/12/07 03:58:12;;;;;;;20.00;14.50;;;;;;;;;;5039049;28;20220;-77
2021/12/07 04:00:42;;;;;;;18.47;14.63;;;;;;;;;;5037888;28;20208;-78
2021/12/07 04:03:14;;;;;;;20.23;14.73;;;;;;;;;;5040260;28;20208;-77
2021/12/07 04:05:47;;;;;;;15.57;11.90;;;;;;;;;;5038607;28;20335;-77
2021/12/07 04:08:18;;;;;;;15.33;11.93;;;;;;;;;;5020161;28;20226;-78
2021/12/07 04:10:46;;;;;;;14.67;12.13;;;;;;;;;;5036670;28;20297;-77
2021/12/07 04:13:15;;;;;;;17.17;13.70;;;;;;;;;;5038092;28;20212;-76
2021/12/07 04:15:43;;;;;;;18.17;12.67;;;;;;;;;;5037534;28;20261;-76
2021/12/07 04:18:13;;;;;;;17.03;12.90;;;;;;;;;;5032168;28;20684;-77
2021/12/07 04:20:42;;;;;;;18.10;13.73;;;;;;;;;;5037340;28;20200;-77
2021/12/07 04:23:10;;;;;;;20.50;13.43;;;;;;;;;;5036382;28;20258;-77
2021/12/07 04:25:39;;;;;;;18.50;13.80;;;;;;;;;;5036804;28;20192;-76
2021/12/07 04:28:07;;;;;;;19.00;14.57;;;;;;;;;;5025452;28;20579;-77
2021/12/07 04:30:37;;;;;;;18.07;14.47;;;;;;;;;;5036478;28;20204;-77
2021/12/07 04:33:07;;;;;;;18.67;14.33;;;;;;;;;;5038093;28;20204;-76
2021/12/07 04:35:38;;;;;;;18.07;14.03;;;;;;;;;;5036079;28;20692;-78
2021/12/07 04:38:06;;;;;;;18.57;14.03;;;;;;;;;;5037564;28;20633;-76
2021/12/07 04:40:35;;;;;;;18.97;14.00;;;;;;;;;;5038421;28;20873;-76
2021/12/07 04:43:04;;;;;;;19.80;13.87;;;;;;;;;;5027326;28;20204;-77
2021/12/07 04:45:45;;;;;;;18.40;14.40;;;;;;;;;;5034750;28;20207;-76
2021/12/07 04:48:53;;;;;;;16.30;12.90;;;;;;;;;;5035843;28;20224;-77
2021/12/07 04:59:33;;;;;;;16.53;12.30;;;;;;;;;;5027279;28;20215;-77
2021/12/07 05:02:01;;;;;;;17.50;13.37;;;;;;;;;;5034247;28;20209;-76
2021/12/07 05:04:33;;;;;;;15.17;12.80;;;;;;;;;;5036272;28;20559;-78
2021/12/07 05:07:08;;;;;;;15.23;12.17;;;;;;;;;;5031997;28;20243;-77
2021/12/07 05:10:06;;;;;;;17.90;13.70;;;;;;;;;;5034966;28;20230;-78
2021/12/07 05:12:42;;;;;;;15.03;11.63;;;;;;;;;;5020349;28;20594;-77
2021/12/07 05:15:20;;;;;;;19.53;14.13;;;;;;;;;;5033705;28;20606;-76
2021/12/07 05:18:19;;;;;;;17.53;13.30;;;;;;;;;;5035848;28;20224;-77
2021/12/07 05:23:57;;;;;;;17.50;13.73;;;;;;;;;;5035658;28;20200;-77
2021/12/07 05:37:39;;;;;;;15.97;13.03;;;;;;;;;;5035539;28;20208;-77
2021/12/07 05:37:50;;;;;;;17.83;13.63;;;;;;;;;;5037955;28;20224;-76
2021/12/07 05:40:21;;;;;;;17.93;12.63;;;;;;;;;;5040302;28;20262;-76
2021/12/07 05:42:50;;;;;;;18.43;14.23;;;;;;;;;;5038131;28;20270;-79
2021/12/07 05:45:20;;;;;;;19.50;12.87;;;;;;;;;;5040457;28;20212;-75
2021/12/07 05:47:49;;;;;;;17.10;12.87;;;;;;;;;;5041480;28;20225;-75
2021/12/07 05:50:18;;;;;;;17.43;13.40;;;;;;;;;;5039321;28;20624;-75
2021/12/07 05:52:47;;;;;;;19.10;13.37;;;;;;;;;;5039506;28;20207;-76
2021/12/07 05:55:16;;;;;;;17.80;13.53;;;;;;;;;;5037490;28;20610;-76
2021/12/07 05:57:46;;;;;;;17.63;12.80;;;;;;;;;;5033806;28;20233;-76
2021/12/07 06:00:19;;;;;;;17.10;13.43;;;;;;;;;;5033287;28;20209;-79
2021/12/07 06:02:47;;;;;;;18.13;13.23;;;;;;;;;;5034313;28;20208;-78
2021/12/07 06:05:16;;;;;;;17.80;13.27;;;;;;;;;;5033278;28;20217;-77
2021/12/07 06:07:44;;;;;;;18.30;13.43;;;;;;;;;;5035232;28;20231;-76
2021/12/07 06:10:13;;;;;;;19.73;14.03;;;;;;;;;;5034987;28;20236;-76
2021/12/07 06:12:41;;;;;;;20.23;14.73;;;;;;;;;;5036471;28;20287;-77
2021/12/07 06:15:14;;;;;;;20.83;14.83;;;;;;;;;;5035541;28;20212;-76
2021/12/07 06:17:42;;;;;;;21.27;16.47;;;;;;;;;;5034353;28;20216;-77
2021/12/07 06:20:11;;;;;;;21.60;15.43;;;;;;;;;;5034680;28;20257;-79
2021/12/07 06:22:59;;;;;;;17.90;14.23;;;;;;;;;;5034445;28;20254;-77
2021/12/07 06:25:30;;;;;;;21.17;15.77;;;;;;;;;;5036439;28;20535;-77
2021/12/07 06:27:58;;;;;;;22.10;15.23;;;;;;;;;;5036613;28;22002;-80
2021/12/07 06:30:28;;;;;;;18.00;14.57;;;;;;;;;;5033461;28;20207;-78
2021/12/07 06:32:57;;;;;;;19.50;15.67;;;;;;;;;;5034961;28;20206;-80
2021/12/07 06:35:25;;;;;;;19.33;15.10;;;;;;;;;;5022315;28;20696;-79
2021/12/07 06:37:54;;;;;;;0.00;0.00;;;;;;;;;;5018245;28;20226;-78
2021/12/07 06:40:24;;;;;;;0.00;0.00;;;;;;;;;;5039633;28;20203;-77
2021/12/07 06:42:54;;;;;;;0.00;0.00;;;;;;;;;;5039366;28;20204;-79
2021/12/07 06:45:23;;;;;;;0.00;0.00;;;;;;;;;;5040019;28;20686;-81
2021/12/07 06:47:52;;;;;;;0.00;0.00;;;;;;;;;;5039714;28;20249;-79
2021/12/07 06:50:21;;;;;;;0.00;0.00;;;;;;;;;;5039711;28;20200;-79
2021/12/07 06:52:49;;;;;;;0.00;0.00;;;;;;;;;;5040460;28;20215;-80
2021/12/07 06:55:18;;;;;;;0.00;0.00;;;;;;;;;;5040518;28;20629;-80
2021/12/07 06:57:46;;;;;;;0.00;0.00;;;;;;;;;;5039847;28;20224;-78
2021/12/07 07:00:15;;;;;;;0.00;0.00;;;;;;;;;;5040089;28;20208;-80
2021/12/07 07:02:44;;;;;;;0.00;0.00;;;;;;;;;;5022648;28;20215;-78
2021/12/07 07:05:14;;;;;;;0.00;0.00;;;;;;;;;;5039097;28;20331;-79
2021/12/07 07:07:43;;;;;;;0.00;0.00;;;;;;;;;;5038458;28;20225;-77
2021/12/07 07:10:14;;;;;;;0.00;0.00;;;;;;;;;;5037281;28;20208;-80
2021/12/07 07:12:43;;;;;;;0.00;0.00;;;;;;;;;;5039116;28;20207;-80
2021/12/07 07:15:11;;;;;;;0.00;0.00;;;;;;;;;;5037180;28;20201;-77
2021/12/07 07:17:40;;;;;;;0.00;0.00;;;;;;;;;;5038414;28;20302;-77
2021/12/07 07:20:10;;;;;;;0.00;0.00;;;;;;;;;;5037998;28;20566;-79
2021/12/07 07:22:40;;;;;;;0.00;0.00;;;;;;;;;;5037472;28;20202;-80
2021/12/07 07:25:10;;;;;;;0.00;0.00;;;;;;;;;;5037107;28;20196;-77
2021/12/07 07:27:39;;;;;;;0.00;0.00;;;;;;;;;;5037403;28;20279;-80
2021/12/07 07:30:08;;;;;;;0.00;0.00;;;;;;;;;;5036391;28;20200;-81
2021/12/07 07:32:37;;;;;;;0.00;0.00;;;;;;;;;;5038312;28;20217;-76
2021/12/07 07:35:08;;;;;;;0.00;0.00;;;;;;;;;;5037903;28;20204;-77
2021/12/07 07:37:37;;;;;;;0.00;0.00;;;;;;;;;;5037576;28;20586;-80
2021/12/07 07:40:08;;;;;;;0.00;0.00;;;;;;;;;;5037226;28;20660;-80
2021/12/07 07:42:40;;;;;;;0.00;0.00;;;;;;;;;;5036556;28;20264;-79
2021/12/07 07:45:09;;;;;;;0.00;0.00;;;;;;;;;;5036356;28;20203;-79
2021/12/07 07:47:38;;;;;;;0.00;0.00;;;;;;;;;;5037067;28;20228;-77
2021/12/07 07:50:07;;;;;;;0.00;0.00;;;;;;;;;;5037156;28;20197;-81
2021/12/07 07:52:36;;;;;;;0.00;0.00;;;;;;;;;;5036767;28;20207;-77
2021/12/07 07:55:05;;;;;;;0.00;0.00;;;;;;;;;;5034686;28;20240;-79
2021/12/07 07:57:34;;;;;;;0.00;0.00;;;;;;;;;;5038608;28;20219;-79
2021/12/07 08:00:07;;;;;;;0.00;0.00;;;;;;;;;;5058483;28;20207;-77
2021/12/07 08:02:36;;;;;;;0.00;0.00;;;;;;;;;;5038186;28;20570;-77
2021/12/07 08:05:05;;;;;;;0.00;0.00;;;;;;;;;;5037538;28;20204;-77
2021/12/07 08:07:33;;;;;;;0.00;0.00;;;;;;;;;;5036996;28;20229;-78
2021/12/07 08:10:02;;;;;;;0.00;0.00;;;;;;;;;;5036646;28;20594;-78
2021/12/07 08:12:30;;;;;;;0.00;0.00;;;;;;;;;;5038367;28;20211;-79
2021/12/07 08:15:00;;;;;;;0.00;0.00;;;;;;;;;;5038822;28;20291;-80
2021/12/07 08:17:28;;;;;;;0.00;0.00;;;;;;;;;;5037422;28;20295;-78
2021/12/07 08:19:57;;;;;;;0.00;0.00;;;;;;;;;;5037005;28;20204;-80
2021/12/07 08:22:28;;;;;;;0.00;0.00;;;;;;;;;;5037843;28;20200;-79
2021/12/07 08:24:56;;;;;;;0.00;0.00;;;;;;;;;;5038151;28;20566;-77
2021/12/07 08:27:25;;;;;;;0.00;0.00;;;;;;;;;;5037583;28;20692;-78
2021/12/07 08:29:57;;;;;;;0.00;0.00;;;;;;;;;;5038357;28;20240;-79
2021/12/07 08:32:27;;;;;;;0.00;0.00;;;;;;;;;;5037791;28;20209;-79
2021/12/07 08:34:55;;;;;;;0.00;0.00;;;;;;;;;;5036756;28;20211;-77
2021/12/07 08:37:24;;;;;;;0.00;0.00;;;;;;;;;;5036606;28;20229;-77
2021/12/07 08:39:52;;;;;;;0.00;0.00;;;;;;;;;;5036136;28;20205;-80
2021/12/07 08:42:20;;;;;;;0.00;0.00;;;;;;;;;;5035883;28;20283;-79
2021/12/07 08:44:49;;;;;;;0.00;0.00;;;;;;;;;;5036274;28;20699;-78
2021/12/07 08:47:17;;;;;;;0.00;0.00;;;;;;;;;;5035739;28;20224;-79
2021/12/07 08:50:09;;;;;;;0.00;0.00;;;;;;;;;;5037102;28;20350;-77
2021/12/07 08:52:38;;;;;;;0.00;0.00;;;;;;;;;;5035468;28;20258;-79
2021/12/07 09:00:45;;;;;;;0.00;0.00;;;;;;;;;;5034415;28;20205;-79
2021/12/07 09:03:14;;;;;;;0.00;0.00;;;;;;;;;;5035179;28;20203;-77
2021/12/07 09:05:44;;;;;;;0.00;0.00;;;;;;;;;;5034788;28;20206;-79
2021/12/07 09:08:12;;;;;;;0.00;0.00;;;;;;;;;;5033998;28;20727;-79
2021/12/07 09:10:41;;;;;;;0.00;0.00;;;;;;;;;;5034794;28;20212;-77
2021/12/07 09:13:09;;;;;;;0.00;0.00;;;;;;;;;;5033960;28;20672;-77
2021/12/07 09:15:39;;;;;;;0.00;0.00;;;;;;;;;;5033578;28;20562;-79
2021/12/07 09:18:08;;;;;;;0.00;0.00;;;;;;;;;;5033923;28;20227;-78
2021/12/07 09:20:37;;;;;;;0.00;0.00;;;;;;;;;;5033621;28;20717;-79
2021/12/07 09:23:07;;;;;;;0.00;0.00;;;;;;;;;;5033870;28;20207;-78
2021/12/07 09:25:35;;;;;;;0.00;0.00;;;;;;;;;;5035647;28;20202;-76
2021/12/07 09:28:05;;;;;;;0.00;0.00;;;;;;;;;;5034173;28;20274;-75
2021/12/07 09:30:33;;;;;;;0.00;0.00;;;;;;;;;;5033631;28;20226;-77
2021/12/07 09:33:02;;;;;;;0.00;0.00;;;;;;;;;;5033512;28;20205;-75
2021/12/07 09:35:30;;;;;;;0.00;0.00;;;;;;;;;;5033810;28;20195;-76
2021/12/07 09:37:59;;;;;;;0.00;0.00;;;;;;;;;;5033231;28;20222;-77
2021/12/07 09:40:29;;;;;;;0.00;0.00;;;;;;;;;;5033253;28;20205;-78
2021/12/07 09:42:59;;;;;;;0.00;0.00;;;;;;;;;;5033142;28;20293;-78
2021/12/07 09:45:30;;;;;;;0.00;0.00;;;;;;;;;;5033701;28;20662;-78
2021/12/07 09:47:59;;;;;;;0.00;0.00;;;;;;;;;;5033261;28;20238;-76
2021/12/07 09:50:29;;;;;;;0.00;0.00;;;;;;;;;;5032521;28;20229;-77
2021/12/07 09:52:57;;;;;;;0.00;0.00;;;;;;;;;;5033482;28;20212;-77
2021/12/07 09:55:28;;;;;;;0.00;0.00;;;;;;;;;;5033436;28;20669;-77
2021/12/07 09:57:58;;;;;;;0.00;0.00;;;;;;;;;;5033286;28;20238;-78
2021/12/07 10:00:28;;;;;;;0.00;0.00;;;;;;;;;;5033128;28;20206;-75
2021/12/07 10:02:57;;;;;;;0.00;0.00;;;;;;;;;;5033253;28;20203;-75
2021/12/07 10:05:29;;;;;;;0.00;0.00;;;;;;;;;;5032542;28;20659;-74
2021/12/07 10:07:57;;;;;;;0.00;0.00;;;;;;;;;;5033155;28;20224;-74
2021/12/07 10:10:27;;;;;;;0.00;0.00;;;;;;;;;;5032979;28;20233;-74
2021/12/07 10:12:57;;;;;;;0.00;0.00;;;;;;;;;;5035505;28;20210;-75
2021/12/07 10:15:26;;;;;;;0.00;0.00;;;;;;;;;;5037199;28;20661;-73
2021/12/07 10:18:05;;;;;;;0.00;0.00;;;;;;;;;;5037303;28;20285;-77
2021/12/07 10:20:42;;;;;;;0.00;0.00;;;;;;;;;;5017440;28;20233;-74
2021/12/07 10:23:26;;;;;;;0.00;0.00;;;;;;;;;;5017240;28;20208;-76
2021/12/07 10:25:56;;;;;;;0.00;0.00;;;;;;;;;;5017485;28;20217;-75
2021/12/07 10:28:31;;;;;;;0.00;0.00;;;;;;;;;;5017155;28;20235;-77
2021/12/07 10:31:02;;;;;;;0.00;0.00;;;;;;;;;;5023273;28;20576;-76
2021/12/07 10:33:31;;;;;;;0.00;0.00;;;;;;;;;;5036579;28;20206;-75
2021/12/07 10:36:08;;;;;;;0.00;0.00;;;;;;;;;;5036753;28;20224;-75
2021/12/07 10:38:37;;;;;;;0.00;0.00;;;;;;;;;;5036745;28;20214;-75
2021/12/07 10:41:07;;;;;;;0.00;0.00;;;;;;;;;;5036800;28;20596;-75
2021/12/07 10:43:46;;;;;;;0.00;0.00;;;;;;;;;;5037717;28;20203;-80
2021/12/07 10:46:29;;;;;;;0.00;0.00;;;;;;;;;;5036558;28;20206;-73
2021/12/07 10:49:09;;;;;;;0.00;0.00;;;;;;;;;;5024373;28;20216;-74
2021/12/07 10:51:38;;;;;;;0.00;0.00;;;;;;;;;;5036695;28;20202;-75
2021/12/07 10:54:07;;;;;;;0.00;0.00;;;;;;;;;;5036461;28;20238;-74
2021/12/07 10:56:36;;;;;;;0.00;0.00;;;;;;;;;;5036774;28;20228;-77
2021/12/07 10:59:07;;;;;;;0.00;0.00;;;;;;;;;;5036423;28;20217;-74
2021/12/07 11:01:37;;;;;;;0.00;0.00;;;;;;;;;;5036419;28;20211;-75
2021/12/07 11:04:19;;;;;;;0.00;0.00;;;;;;;;;;5035939;28;20289;-74
2021/12/07 11:07:17;;;;;;;0.00;0.00;;;;;;;;;;5036216;28;20223;-72
2021/12/07 11:09:51;;;;;;;0.00;0.00;;;;;;;;;;4975213;28;20232;-76
2021/12/07 11:12:20;;;;;;;0.00;0.00;;;;;;;;;;5024808;28;20217;-77
2021/12/07 11:14:52;;;;;;;0.00;0.00;;;;;;;;;;5036257;28;20219;-76
2021/12/07 11:17:22;;;;;;;0.00;0.00;;;;;;;;;;5036318;28;20575;-76
2021/12/07 11:19:52;;;;;;;0.00;0.00;;;;;;;;;;5035835;28;20182;-77
2021/12/07 11:22:21;;;;;;;0.00;0.00;;;;;;;;;;5035192;28;20222;-77
2021/12/07 11:24:51;;;;;;;0.00;0.00;;;;;;;;;;5034804;28;20261;-75
2021/12/07 11:30:10;;;;;;;0.00;0.00;;;;;;;;;;5035482;28;20227;-73
2021/12/07 11:32:42;;;;;;;0.00;0.00;;;;;;;;;;5035367;28;20260;-77
2021/12/07 11:35:14;;;;;;;0.00;0.00;;;;;;;;;;5035704;28;20195;-74
2021/12/07 11:37:43;;;;;;;0.00;0.00;;;;;;;;;;5035606;28;20231;-73
2021/12/07 11:40:13;;;;;;;0.00;0.00;;;;;;;;;;5021971;28;20201;-74
2021/12/07 11:42:43;;;;;;;0.00;0.00;;;;;;;;;;5015611;28;20208;-73
2021/12/07 11:45:16;;;;;;;0.00;0.00;;;;;;;;;;5019281;28;20821;-72
2021/12/07 11:47:46;;;;;;;0.00;0.00;;;;;;;;;;5034039;28;20621;-74
2021/12/07 11:50:20;;;;;;;0.00;0.00;;;;;;;;;;5034789;28;20702;-75
2021/12/07 11:52:49;;;;;;;0.00;0.00;;;;;;;;;;5035357;28;20213;-76
2021/12/07 11:55:18;;;;;;;0.00;0.00;;;;;;;;;;5035071;28;20605;-73
2021/12/07 11:57:47;;;;;;;0.00;0.00;;;;;;;;;;5035151;28;20227;-75
2021/12/07 12:00:20;;;;;;;0.00;0.00;;;;;;;;;;5035296;28;20207;-73
2021/12/07 12:02:48;;;;;;;0.00;0.00;;;;;;;;;;5035124;28;20624;-75
2021/12/07 12:05:17;;;;;;;0.00;0.00;;;;;;;;;;5035564;28;20295;-74
2021/12/07 12:07:46;;;;;;;0.00;0.00;;;;;;;;;;5035918;28;20294;-76
2021/12/07 12:10:17;;;;;;;0.00;0.00;;;;;;;;;;5034728;28;20219;-77
2021/12/07 12:12:55;;;;;;;0.00;0.00;;;;;;;;;;5034907;28;20214;-74
2021/12/07 12:15:38;;;;;;;0.00;0.00;;;;;;;;;;5035118;28;20192;-76
2021/12/07 12:18:10;;;;;;;0.00;0.00;;;;;;;;;;5034882;28;20285;-72
2021/12/07 12:20:45;;;;;;;0.00;0.00;;;;;;;;;;5034733;28;20253;-74
2021/12/07 12:23:21;;;;;;;0.00;0.00;;;;;;;;;;5035035;28;20207;-73
2021/12/07 12:25:55;;;;;;;0.00;0.00;;;;;;;;;;5034681;28;20256;-76
2021/12/07 12:28:25;;;;;;;0.00;0.00;;;;;;;;;;5035097;28;20188;-73
2021/12/07 12:30:55;;;;;;;0.00;0.00;;;;;;;;;;5034876;28;20231;-76
2021/12/07 12:33:23;;;;;;;0.10;0.10;;;;;;;;;;5034999;28;20199;-75
2021/12/07 12:35:53;;;;;;;0.00;0.00;;;;;;;;;;5034300;28;20556;-76
2021/12/07 12:38:23;;;;;;;0.00;0.00;;;;;;;;;;5034391;28;20205;-75
2021/12/07 12:40:55;;;;;;;0.00;0.00;;;;;;;;;;5034701;28;20199;-73
2021/12/07 12:43:33;;;;;;;0.00;0.00;;;;;;;;;;5034329;28;20620;-76
2021/12/07 12:46:04;;;;;;;0.00;0.00;;;;;;;;;;5034284;28;20574;-75
2021/12/07 12:48:33;;;;;;;0.00;0.00;;;;;;;;;;5034550;28;20214;-76
2021/12/07 12:51:04;;;;;;;0.00;0.00;;;;;;;;;;5034449;28;20212;-76
2021/12/07 12:53:34;;;;;;;0.00;0.00;;;;;;;;;;5033644;28;20698;-72
2021/12/07 12:56:05;;;;;;;0.00;0.00;;;;;;;;;;5033969;28;20207;-76
2021/12/07 12:58:43;;;;;;;0.00;0.00;;;;;;;;;;5034303;28;20210;-76
2021/12/07 13:01:29;;;;;;;0.00;0.00;;;;;;;;;;5034258;28;20212;-76
2021/12/07 13:04:16;;;;;;;0.00;0.00;;;;;;;;;;5033919;28;20307;-74
2021/12/07 13:06:52;;;;;;;0.00;0.00;;;;;;;;;;5033184;28;20289;-72
2021/12/07 13:09:38;;;;;;;0.00;0.00;;;;;;;;;;5030687;28;20210;-76
2021/12/07 13:12:08;;;;;;;0.00;0.00;;;;;;;;;;5014739;28;20228;-74
2021/12/07 13:14:45;;;;;;;0.00;0.00;;;;;;;;;;5014470;28;20207;-75
2021/12/07 13:17:19;;;;;;;0.00;0.00;;;;;;;;;;5015409;28;20223;-73
2021/12/07 13:20:06;;;;;;;0.00;0.00;;;;;;;;;;5031855;28;20204;-73
2021/12/07 13:22:37;;;;;;;0.00;0.00;;;;;;;;;;5032897;28;20191;-74
2021/12/07 13:25:06;;;;;;;0.00;0.00;;;;;;;;;;5033943;28;20285;-72
2021/12/07 13:27:35;;;;;;;0.00;0.00;;;;;;;;;;5033335;28;20252;-73
2021/12/07 13:30:06;;;;;;;0.00;0.00;;;;;;;;;;5032176;28;20581;-75
2021/12/07 13:32:34;;;;;;;0.00;0.00;;;;;;;;;;5031991;28;20756;-72
2021/12/07 13:35:05;;;;;;;0.00;0.00;;;;;;;;;;5031873;28;20227;-75
2021/12/07 13:37:46;;;;;;;0.00;0.00;;;;;;;;;;5033454;28;20645;-74
2021/12/07 13:40:18;;;;;;;0.00;0.00;;;;;;;;;;5043670;28;20634;-74
2021/12/07 13:42:52;;;;;;;0.00;0.00;;;;;;;;;;5053427;28;20203;-75
2021/12/07 13:45:21;;;;;;;0.00;0.00;;;;;;;;;;5053240;28;20206;-75
2021/12/07 13:47:50;;;;;;;0.00;0.00;;;;;;;;;;5052616;28;20226;-75
2021/12/07 13:50:23;;;;;;;0.00;0.00;;;;;;;;;;5053228;28;20290;-74
2021/12/07 13:52:54;;;;;;;0.00;0.00;;;;;;;;;;5051572;28;20225;-73
2021/12/07 13:55:25;;;;;;;0.00;0.00;;;;;;;;;;5053235;28;20250;-74
2021/12/07 13:57:54;;;;;;;0.00;0.00;;;;;;;;;;5052924;28;20643;-75
2021/12/07 14:00:23;;;;;;;0.13;0.13;;;;;;;;;;5051936;28;20199;-72
2021/12/07 14:02:55;;;;;;;0.00;0.00;;;;;;;;;;5033295;28;20211;-74
2021/12/07 14:05:26;;;;;;;0.00;0.00;;;;;;;;;;5032805;28;20253;-73
2021/12/07 14:07:56;;;;;;;0.00;0.00;;;;;;;;;;5032897;28;20715;-72
2021/12/07 14:10:26;;;;;;;0.00;0.00;;;;;;;;;;5025889;28;20209;-75
2021/12/07 14:12:55;;;;;;;0.00;0.00;;;;;;;;;;5013237;28;20220;-78
2021/12/07 14:15:25;;;;;;;0.00;0.00;;;;;;;;;;5026434;28;20207;-74
2021/12/07 14:17:55;;;;;;;0.00;0.00;;;;;;;;;;5033088;28;20230;-73
2021/12/07 14:20:37;;;;;;;0.00;0.00;;;;;;;;;;5032675;28;20571;-76
2021/12/07 14:23:17;;;;;;;0.00;0.00;;;;;;;;;;5024321;28;20191;-75
2021/12/07 14:25:47;;;;;;;0.48;0.20;;;;;;;;;;4684220;28;10001236;-77
2021/12/07 14:28:23;;;;;;;0.00;0.00;;;;;;;;;;5033735;28;20236;-75
2021/12/07 14:30:52;;;;;;;0.00;0.00;;;;;;;;;;5044228;28;20280;-77
2021/12/07 14:33:21;;;;;;;0.00;0.00;;;;;;;;;;5021974;28;20645;-74
2021/12/07 14:35:50;;;;;;;0.00;0.00;;;;;;;;;;5028468;28;20700;-71
2021/12/07 14:38:25;;;;;;;0.00;0.00;;;;;;;;;;5028951;28;20227;-74
2021/12/07 14:40:57;;;;;;;0.00;0.00;;;;;;;;;;5023929;28;20225;-74
2021/12/07 14:43:33;;;;;;;0.00;0.00;;;;;;;;;;5029006;28;20202;-78
2021/12/07 14:46:22;;;;;;;0.00;0.00;;;;;;;;;;5028280;28;20302;-77
2021/12/07 14:48:55;;;;;;;0.00;0.00;;;;;;;;;;5027531;28;20258;-75
2021/12/07 14:51:26;;;;;;;0.00;0.00;;;;;;;;;;5028160;28;20204;-77
2021/12/07 14:54:01;;;;;;;0.03;0.03;;;;;;;;;;5026983;28;20307;-75
2021/12/07 14:56:31;;;;;;;0.00;0.00;;;;;;;;;;5026962;28;20313;-77
2021/12/07 14:59:18;;;;;;;0.00;0.00;;;;;;;;;;5025603;28;20269;-77
2021/12/07 15:01:49;;;;;;;0.00;0.00;;;;;;;;;;5030402;28;20207;-78
2021/12/07 15:04:21;;;;;;;0.00;0.00;;;;;;;;;;5026402;28;20206;-77
2021/12/07 15:06:54;;;;;;;0.00;0.00;;;;;;;;;;5030758;28;20624;-74
2021/12/07 15:09:34;;;;;;;0.00;0.00;;;;;;;;;;5033369;28;20294;-73
2021/12/07 15:12:07;;;;;;;0.00;0.00;;;;;;;;;;5028209;28;20237;-74
2021/12/07 15:14:43;;;;;;;0.00;0.00;;;;;;;;;;5028843;28;20286;-74
2021/12/07 15:17:14;;;;;;;0.00;0.00;;;;;;;;;;5027877;28;20236;-72
2021/12/07 15:19:44;;;;;;;0.00;0.00;;;;;;;;;;5032028;28;20230;-74
2021/12/07 15:22:18;;;;;;;0.00;0.00;;;;;;;;;;5013893;28;20209;-75
2021/12/07 15:24:50;;;;;;;0.00;0.00;;;;;;;;;;5012654;28;20254;-73
2021/12/07 15:27:35;;;;;;;0.00;0.00;;;;;;;;;;5011862;28;20317;-75
2021/12/07 15:30:05;;;;;;;0.10;0.10;;;;;;;;;;5024555;28;20216;-73
2021/12/07 15:32:36;;;;;;;0.00;0.00;;;;;;;;;;5029286;28;20231;-74
2021/12/07 15:35:08;;;;;;;0.23;0.23;;;;;;;;;;5018668;28;20228;-74
2021/12/07 15:37:41;;;;;;;0.00;0.00;;;;;;;;;;5030203;28;20235;-73
2021/12/07 15:40:13;;;;;;;0.00;0.00;;;;;;;;;;5019149;28;20288;-73
2021/12/07 15:42:47;;;;;;;0.00;0.00;;;;;;;;;;5015963;28;20192;-73
2021/12/07 15:45:19;;;;;;;0.00;0.00;;;;;;;;;;5021433;28;20227;-74
2021/12/07 15:47:53;;;;;;;0.00;0.00;;;;;;;;;;5016864;28;20695;-75
2021/12/07 15:50:28;;;;;;;0.00;0.00;;;;;;;;;;5025729;28;20622;-72
2021/12/07 15:53:05;;;;;;;0.00;0.00;;;;;;;;;;5016196;28;20790;-74
2021/12/07 15:55:48;;;;;;;0.00;0.00;;;;;;;;;;5018927;28;20206;-71
2021/12/07 15:58:28;;;;;;;0.00;0.00;;;;;;;;;;5018961;28;20682;-72
2021/12/07 16:01:02;;;;;;;0.00;0.00;;;;;;;;;;5023356;28;20212;-72
2021/12/07 16:03:41;;;;;;;0.00;0.00;;;;;;;;;;5030459;28;20223;-72
2021/12/07 16:06:22;;;;;;;0.00;0.00;;;;;;;;;;5030753;28;20203;-75
2021/12/07 16:09:15;;;;;;;0.00;0.00;;;;;;;;;;5031147;28;20203;-73
2021/12/07 16:11:52;;;;;;;0.00;0.00;;;;;;;;;;5030771;28;20248;-72
2021/12/07 16:14:26;;;;;;;0.00;0.00;;;;;;;;;;5030398;28;20227;-75
2021/12/07 16:17:06;;;;;;;0.00;0.00;;;;;;;;;;5030563;28;20239;-73
2021/12/07 16:19:40;;;;;;;0.00;0.00;;;;;;;;;;5030783;28;20217;-74
2021/12/07 16:22:15;;;;;;;0.00;0.00;;;;;;;;;;5030709;28;20209;-73
2021/12/07 16:24:45;;;;;;;0.00;0.00;;;;;;;;;;5028355;28;20685;-73
2021/12/07 16:27:19;;;;;;;0.00;0.00;;;;;;;;;;5024183;28;20691;-74